createdAt,value
2023-04-15T00:00:31.355Z,4.80
2023-04-15T00:02:32.960Z,5.45
2023-04-15T00:04:34.591Z,5.32
2023-04-15T00:06:37.476Z,5.78
2023-04-15T00:08:39.259Z,5.35
2023-04-15T00:10:40.748Z,5.15
2023-04-15T00:12:42.414Z,5.30
2023-04-15T00:14:44.919Z,5.45
2023-04-15T00:16:46.406Z,5.97
2023-04-15T00:18:47.799Z,5.38
2023-04-15T00:20:49.187Z,4.97
2023-04-15T00:22:50.641Z,5.57
2023-04-15T00:24:53.297Z,5.35
2023-04-15T00:26:54.716Z,5.22
2023-04-15T00:28:56.145Z,5.03
2023-04-15T00:30:57.743Z,5.10
2023-04-15T00:32:59.376Z,5.13
2023-04-15T00:35:00.986Z,5.10
2023-04-15T00:37:02.673Z,5.38
2023-04-15T00:39:05.304Z,5.15
2023-04-15T00:41:07.597Z,4.85
2023-04-15T00:43:08.986Z,5.13
2023-04-15T00:45:10.752Z,5.18
2023-04-15T00:47:12.313Z,5.20
2023-04-15T00:49:13.994Z,4.60
2023-04-15T00:51:16.050Z,5.22
2023-04-15T00:53:17.448Z,5.13
2023-04-15T00:55:19.322Z,5.00
2023-04-15T00:57:22.357Z,5.25
2023-04-15T00:59:24.100Z,4.95
2023-04-15T01:01:26.450Z,4.88
2023-04-15T01:03:29.491Z,4.95
2023-04-15T01:05:31.306Z,5.18
2023-04-15T01:07:32.706Z,4.85
2023-04-15T01:09:34.137Z,5.03
2023-04-15T01:11:35.712Z,4.90
2023-04-15T01:13:37.272Z,5.00
2023-04-15T01:15:39.062Z,4.63
2023-04-15T01:17:40.535Z,4.32
2023-04-15T01:19:42.264Z,4.65
2023-04-15T01:21:43.777Z,4.88
2023-04-15T01:23:47.677Z,4.85
2023-04-15T01:25:50.248Z,4.95
2023-04-15T01:27:51.633Z,4.70
2023-04-15T01:29:53.072Z,5.20
2023-04-15T01:31:56.014Z,4.97
2023-04-15T01:33:57.605Z,4.93
2023-04-15T01:35:59.163Z,5.35
2023-04-15T01:38:06.520Z,5.57
2023-04-15T01:40:08.578Z,5.07
2023-04-15T01:42:10.201Z,5.15
2023-04-15T01:44:11.655Z,5.30
2023-04-15T01:46:13.093Z,5.20
2023-04-15T01:48:14.535Z,4.68
2023-04-15T01:50:16.085Z,5.45
2023-04-15T01:52:17.529Z,5.13
2023-04-15T01:54:18.901Z,5.30
2023-04-15T01:56:20.298Z,4.85
2023-04-15T01:58:22.530Z,5.43
2023-04-15T02:00:24.004Z,6.18
2023-04-15T02:02:25.902Z,5.88
2023-04-15T02:04:27.934Z,6.55
2023-04-15T02:06:29.298Z,5.90
2023-04-15T02:08:30.864Z,5.60
2023-04-15T02:10:32.236Z,6.20
2023-04-15T02:12:33.815Z,5.55
2023-04-15T02:14:35.614Z,6.30
2023-04-15T02:16:37.127Z,6.30
2023-04-15T02:18:38.580Z,6.47
2023-04-15T02:20:40.026Z,6.63
2023-04-15T02:22:41.415Z,6.43
2023-04-15T02:24:42.794Z,6.00
2023-04-15T02:26:44.148Z,6.50
2023-04-15T02:28:46.787Z,6.88
2023-04-15T02:30:52.813Z,6.82
2023-04-15T02:32:54.737Z,6.53
2023-04-15T02:34:56.271Z,6.43
2023-04-15T02:36:57.811Z,6.60
2023-04-15T02:38:59.835Z,6.93
2023-04-15T02:41:01.569Z,6.70
2023-04-15T02:43:03.155Z,6.40
2023-04-15T02:45:05.925Z,7.03
2023-04-15T02:47:07.411Z,6.85
2023-04-15T02:49:08.862Z,7.32
2023-04-15T02:51:19.883Z,7.55
2023-04-15T02:53:21.433Z,6.22
2023-04-15T02:55:22.890Z,6.60
2023-04-15T02:57:24.364Z,6.75
2023-04-15T02:59:25.733Z,7.32
2023-04-15T03:01:27.254Z,6.55
2023-04-15T03:03:28.817Z,6.32
2023-04-15T03:05:30.530Z,6.18
2023-04-15T03:07:32.061Z,6.72
2023-04-15T03:09:33.539Z,6.75
2023-04-15T03:11:37.017Z,6.32
2023-04-15T03:13:39.518Z,6.97
2023-04-15T03:15:40.934Z,6.57
2023-04-15T03:17:42.480Z,6.93
2023-04-15T03:19:44.302Z,6.30
2023-04-15T03:21:45.741Z,5.93
2023-04-15T03:23:47.159Z,6.30
2023-04-15T03:25:48.610Z,6.10
2023-04-15T03:27:49.988Z,6.25
2023-04-15T03:29:51.724Z,6.15
2023-04-15T03:31:53.639Z,5.60
2023-04-15T03:33:55.034Z,6.50
2023-04-15T03:35:56.676Z,6.03
2023-04-15T03:37:58.128Z,6.25
2023-04-15T03:39:59.521Z,6.70
2023-04-15T03:42:01.820Z,5.40
2023-04-15T03:44:03.238Z,6.18
2023-04-15T03:46:04.943Z,5.63
2023-04-15T03:48:16.487Z,6.45
2023-04-15T03:50:19.445Z,6.00
2023-04-15T03:52:20.874Z,6.30
2023-04-15T03:54:22.274Z,5.72
2023-04-15T03:56:23.640Z,6.72
2023-04-15T03:58:25.059Z,6.05
2023-04-15T04:00:26.478Z,6.50
2023-04-15T04:02:28.306Z,6.05
2023-04-15T04:04:30.070Z,6.88
2023-04-15T04:06:31.600Z,7.32
2023-04-15T04:08:33.012Z,6.38
2023-04-15T04:10:34.684Z,6.72
2023-04-15T04:12:36.280Z,7.22
2023-04-15T04:14:37.683Z,7.13
2023-04-15T04:16:39.203Z,6.65
2023-04-15T04:18:40.837Z,6.90
2023-04-15T04:20:42.460Z,6.60
2023-04-15T04:22:43.913Z,6.43
2023-04-15T04:24:45.333Z,6.50
2023-04-15T04:26:46.801Z,6.82
2023-04-15T04:28:48.329Z,6.57
2023-04-15T04:30:49.798Z,7.18
2023-04-15T04:32:51.636Z,6.95
2023-04-15T04:34:53.169Z,6.10
2023-04-15T04:36:54.573Z,6.53
2023-04-15T04:38:56.156Z,6.55
2023-04-15T04:40:57.646Z,8.35
2023-04-15T04:42:59.105Z,7.22
2023-04-15T04:45:00.556Z,8.05
2023-04-15T04:47:01.950Z,7.60
2023-04-15T04:49:03.574Z,10.52
2023-04-15T04:51:05.512Z,7.18
2023-04-15T04:53:07.144Z,6.72
2023-04-15T04:55:08.794Z,7.15
2023-04-15T04:57:10.501Z,7.18
2023-04-15T04:59:11.883Z,7.82
2023-04-15T05:01:13.546Z,6.55
2023-04-15T05:03:15.245Z,6.85
2023-04-15T05:05:17.265Z,6.55
2023-04-15T05:07:20.776Z,6.35
2023-04-15T05:09:22.204Z,6.97
2023-04-15T05:11:23.613Z,7.20
2023-04-15T05:13:25.080Z,7.78
2023-04-15T05:15:26.517Z,6.43
2023-04-15T05:17:27.968Z,7.70
2023-04-15T05:19:29.358Z,6.63
2023-04-15T05:21:31.675Z,7.53
2023-04-15T05:23:33.506Z,7.75
2023-04-15T05:25:34.931Z,7.38
2023-04-15T05:27:36.734Z,8.00
2023-04-15T05:29:38.098Z,7.68
2023-04-15T05:31:39.598Z,7.93
2023-04-15T05:33:41.334Z,8.50
2023-04-15T05:35:42.769Z,8.50
2023-04-15T05:37:44.254Z,8.00
2023-04-15T05:39:45.619Z,8.27
2023-04-15T05:41:47.083Z,8.38
2023-04-15T05:43:48.498Z,7.50
2023-04-15T05:45:50.011Z,6.80
2023-04-15T05:47:53.959Z,7.03
2023-04-15T05:49:55.819Z,7.13
2023-04-15T05:51:57.176Z,7.68
2023-04-15T05:53:58.601Z,6.78
2023-04-15T05:56:00.088Z,6.93
2023-04-15T05:58:01.769Z,7.22
2023-04-15T06:00:05.283Z,6.30
2023-04-15T06:02:07.499Z,7.65
2023-04-15T06:04:09.730Z,7.63
2023-04-15T06:06:11.226Z,7.40
2023-04-15T06:08:12.577Z,7.93
2023-04-15T06:10:13.971Z,6.97
2023-04-15T06:12:15.783Z,7.55
2023-04-15T06:14:17.188Z,7.88
2023-04-15T06:16:18.615Z,7.68
2023-04-15T06:18:20.222Z,8.35
2023-04-15T06:20:21.716Z,8.73
2023-04-15T06:22:23.849Z,10.23
2023-04-15T06:24:25.234Z,8.55
2023-04-15T06:26:27.210Z,9.02
2023-04-15T06:28:28.612Z,9.10
2023-04-15T06:30:29.976Z,8.90
2023-04-15T06:32:32.424Z,8.82
2023-04-15T06:34:33.866Z,8.98
2023-04-15T06:36:35.315Z,9.07
2023-04-15T06:38:36.704Z,9.05
2023-04-15T06:40:38.133Z,9.50
2023-04-15T06:42:39.568Z,8.82
2023-04-15T06:44:41.061Z,9.48
2023-04-15T06:46:42.434Z,9.68
2023-04-15T06:48:44.368Z,9.82
2023-04-15T06:50:45.805Z,9.65
2023-04-15T06:52:47.620Z,11.20
2023-04-15T06:54:49.003Z,10.20
2023-04-15T06:56:51.523Z,10.23
2023-04-15T06:58:52.966Z,9.27
2023-04-15T07:00:54.571Z,9.13
2023-04-15T07:02:56.457Z,9.80
2023-04-15T07:04:57.961Z,10.20
2023-04-15T07:07:01.638Z,9.80
2023-04-15T07:09:04.632Z,10.38
2023-04-15T07:11:07.427Z,10.13
2023-04-15T07:13:08.899Z,9.55
2023-04-15T07:15:10.785Z,10.10
2023-04-15T07:17:12.283Z,10.27
2023-04-15T07:19:13.678Z,10.00
2023-04-15T07:21:15.195Z,9.95
2023-04-15T07:23:16.588Z,9.52
2023-04-15T07:25:18.945Z,10.35
2023-04-15T07:27:20.924Z,10.40
2023-04-15T07:29:22.431Z,11.13
2023-04-15T07:31:23.875Z,9.60
2023-04-15T07:33:25.328Z,9.48
2023-04-15T07:35:27.507Z,9.55
2023-04-15T07:37:29.600Z,9.50
2023-04-15T07:39:31.189Z,9.07
2023-04-15T07:41:32.606Z,9.13
2023-04-15T07:43:34.048Z,10.20
2023-04-15T07:45:35.637Z,8.88
2023-04-15T07:47:37.236Z,8.70
2023-04-15T07:49:38.741Z,8.85
2023-04-15T07:51:40.183Z,9.07
2023-04-15T07:53:42.466Z,9.68
2023-04-15T07:55:43.851Z,9.13
2023-04-15T07:57:45.334Z,8.90
2023-04-15T07:59:46.725Z,9.27
2023-04-15T08:01:48.358Z,9.82
2023-04-15T08:03:50.057Z,9.38
2023-04-15T08:05:51.559Z,9.43
2023-04-15T08:07:53.028Z,9.55
2023-04-15T08:09:54.663Z,8.98
2023-04-15T08:11:56.974Z,8.70
2023-04-15T08:13:58.435Z,9.27
2023-04-15T08:16:21.187Z,8.32
2023-04-15T08:18:22.667Z,8.05
2023-04-15T08:20:24.089Z,7.85
2023-04-15T08:22:25.645Z,7.68
2023-04-15T08:24:27.326Z,8.73
2023-04-15T08:26:28.870Z,7.75
2023-04-15T08:28:30.648Z,8.98
2023-04-15T08:30:32.033Z,7.85
2023-04-15T08:32:33.470Z,7.68
2023-04-15T08:34:35.192Z,7.50
2023-04-15T08:38:51.302Z,7.32
2023-04-15T08:40:52.798Z,7.68
2023-04-15T08:42:57.588Z,7.45
2023-04-15T08:45:01.133Z,8.35
2023-04-15T08:47:03.562Z,6.55
2023-04-15T08:49:05.670Z,7.25
2023-04-15T08:51:08.411Z,6.93
2023-04-15T08:53:11.632Z,6.65
2023-04-15T08:55:14.311Z,6.63
2023-04-15T08:57:16.195Z,6.60
2023-04-15T08:59:18.155Z,7.50
2023-04-15T09:01:20.096Z,6.20
2023-04-15T09:03:23.641Z,6.18
2023-04-15T09:05:25.228Z,6.18
2023-04-15T09:07:26.986Z,6.97
2023-04-15T09:09:29.034Z,6.22
2023-04-15T09:11:31.399Z,6.55
2023-04-15T09:13:32.970Z,6.05
2023-04-15T09:15:38.361Z,5.75
2023-04-15T09:17:44.218Z,6.22
2023-04-15T09:19:46.026Z,6.10
2023-04-15T09:21:48.041Z,6.22
2023-04-15T09:24:00.551Z,6.13
2023-04-15T09:26:02.814Z,6.03
2023-04-15T09:28:04.323Z,5.70
2023-04-15T09:30:08.868Z,6.10
2023-04-15T09:32:15.537Z,6.10
2023-04-15T09:34:17.914Z,5.82
2023-04-15T09:36:19.356Z,6.25
2023-04-15T09:38:20.805Z,6.43
2023-04-15T09:40:36.351Z,7.10
2023-04-15T09:42:53.706Z,6.13
2023-04-15T09:44:55.273Z,6.60
2023-04-15T09:46:56.695Z,6.20
2023-04-15T09:49:11.651Z,6.97
2023-04-15T09:51:13.261Z,7.05
2023-04-15T09:53:19.482Z,6.85
2023-04-15T09:55:21.089Z,6.75
2023-04-15T09:57:23.646Z,6.75
2023-04-15T09:59:25.087Z,7.07
2023-04-15T10:01:26.996Z,7.43
2023-04-15T10:03:31.137Z,6.45
2023-04-15T10:05:33.471Z,6.22
2023-04-15T10:07:35.227Z,6.85
2023-04-15T10:09:38.188Z,7.65
2023-04-15T10:11:39.994Z,7.55
2023-04-15T10:13:41.632Z,7.07
2023-04-15T10:15:46.037Z,6.65
2023-04-15T10:17:50.386Z,6.95
2023-04-15T10:19:54.552Z,6.88
2023-04-15T10:21:56.202Z,7.50
2023-04-15T10:23:58.747Z,6.32
2023-04-15T10:26:01.092Z,6.55
2023-04-15T10:28:03.387Z,7.00
2023-04-15T10:30:06.032Z,6.35
2023-04-15T10:32:08.047Z,5.57
2023-04-15T10:34:10.786Z,5.00
2023-04-15T10:36:13.104Z,5.00
2023-04-15T10:38:46.806Z,5.10
2023-04-15T10:40:50.624Z,5.40
2023-04-15T10:42:52.070Z,5.15
2023-04-15T10:44:57.048Z,5.35
2023-04-15T10:46:58.673Z,5.85
2023-04-15T10:49:08.071Z,6.15
2023-04-15T10:51:09.489Z,5.95
2023-04-15T10:53:11.340Z,6.50
2023-04-15T10:55:20.250Z,5.70
2023-04-15T10:57:23.662Z,6.35
2023-04-15T10:59:25.272Z,6.78
2023-04-15T11:01:55.022Z,5.75
2023-04-15T11:03:56.951Z,5.25
2023-04-15T11:05:58.571Z,6.38
2023-04-15T11:08:00.050Z,5.90
2023-04-15T11:10:01.909Z,6.28
2023-04-15T11:12:10.532Z,6.60
2023-04-15T11:14:16.200Z,7.30
2023-04-15T11:16:18.070Z,7.47
2023-04-15T11:18:28.439Z,8.32
2023-04-15T11:20:29.929Z,8.18
2023-04-15T11:22:31.403Z,8.43
2023-04-15T11:24:32.857Z,8.65
2023-04-15T11:26:34.311Z,7.25
2023-04-15T11:28:38.765Z,6.90
2023-04-15T11:30:42.446Z,6.10
2023-04-15T11:32:44.054Z,5.65
2023-04-15T11:34:46.601Z,4.95
2023-04-15T11:36:48.874Z,5.03
2023-04-15T11:38:50.467Z,5.88
2023-04-15T11:40:52.668Z,5.70
2023-04-15T11:43:31.674Z,5.72
2023-04-15T11:45:33.393Z,5.60
2023-04-15T11:47:36.925Z,5.90
2023-04-15T11:49:43.003Z,5.57
2023-04-15T11:51:45.261Z,6.40
2023-04-15T11:53:48.617Z,6.57
2023-04-15T11:55:52.757Z,6.57
2023-04-15T11:58:21.295Z,5.93
2023-04-15T12:00:23.134Z,6.07
2023-04-15T12:02:32.089Z,6.13
2023-04-15T12:04:33.870Z,5.55
2023-04-15T12:06:36.831Z,6.18
2023-04-15T12:09:00.394Z,6.43
2023-04-15T12:11:01.919Z,5.18
2023-04-15T12:13:07.046Z,6.07
2023-04-15T12:15:09.862Z,5.65
2023-04-15T12:17:13.116Z,5.57
2023-04-15T12:19:16.301Z,5.78
2023-04-15T12:21:22.620Z,5.50
2023-04-15T12:23:24.042Z,5.38
2023-04-15T12:25:35.318Z,5.97
2023-04-15T12:27:36.777Z,5.40
2023-04-15T12:29:39.888Z,5.40
2023-04-15T12:31:52.069Z,5.70
2023-04-15T12:34:00.951Z,5.43
2023-04-15T12:36:03.143Z,5.53
2023-04-15T12:38:04.569Z,5.07
2023-04-15T12:40:08.543Z,5.35
2023-04-15T12:42:10.791Z,4.95
2023-04-15T12:44:12.720Z,5.38
2023-04-15T12:46:14.209Z,5.50
2023-04-15T12:48:15.731Z,5.75
2023-04-15T12:50:18.816Z,5.45
2023-04-15T12:52:20.286Z,5.40
2023-04-15T12:54:21.961Z,5.10
2023-04-15T12:56:23.904Z,5.60
2023-04-15T12:58:25.388Z,4.80
2023-04-15T13:00:26.793Z,5.10
2023-04-15T13:02:29.194Z,5.32
2023-04-15T13:04:31.630Z,5.63
2023-04-15T13:06:33.404Z,4.80
2023-04-15T13:08:36.780Z,4.78
2023-04-15T13:10:40.414Z,5.35
2023-04-15T13:12:41.815Z,4.97
2023-04-15T13:14:43.317Z,5.57
2023-04-15T13:16:44.725Z,5.45
2023-04-15T13:18:46.177Z,5.22
2023-04-15T13:20:47.577Z,5.05
2023-04-15T13:22:49.079Z,5.13
2023-04-15T13:24:51.404Z,4.82
2023-04-15T13:26:53.433Z,5.47
2023-04-15T13:28:54.873Z,4.75
2023-04-15T13:30:56.315Z,5.03
2023-04-15T13:32:57.922Z,5.28
2023-04-15T13:34:59.668Z,5.00
2023-04-15T13:37:09.427Z,5.25
2023-04-15T13:39:11.042Z,5.13
2023-04-15T13:41:12.424Z,4.93
2023-04-15T13:43:13.898Z,4.65
2023-04-15T13:45:16.170Z,4.32
2023-04-15T13:47:19.484Z,4.32
2023-04-15T13:49:21.013Z,4.50
2023-04-15T13:51:22.751Z,4.75
2023-04-15T13:53:38.020Z,4.78
2023-04-15T13:55:42.552Z,4.28
2023-04-15T13:57:44.221Z,4.15
2023-04-15T13:59:46.335Z,4.38
2023-04-15T14:01:47.768Z,4.63
2023-04-15T14:03:49.280Z,4.30
2023-04-15T14:05:55.913Z,4.30
2023-04-15T14:07:57.578Z,3.90
2023-04-15T14:09:59.045Z,4.40
2023-04-15T14:12:01.404Z,4.15
2023-04-15T14:14:02.999Z,4.30
2023-04-15T14:16:05.207Z,4.30
2023-04-15T14:18:07.579Z,4.20
2023-04-15T14:20:09.626Z,3.85
2023-04-15T14:22:11.193Z,4.05
2023-04-15T14:24:12.583Z,3.92
2023-04-15T14:26:14.611Z,3.97
2023-04-15T14:28:16.157Z,3.85
2023-04-15T14:30:17.604Z,4.03
2023-04-15T14:32:19.037Z,4.00
2023-04-15T14:34:22.235Z,3.92
2023-04-15T14:36:23.657Z,4.10
2023-04-15T14:38:25.051Z,3.78
2023-04-15T14:40:26.548Z,4.30
2023-04-15T14:42:28.028Z,3.70
2023-04-15T14:46:30.977Z,3.50
2023-04-15T14:48:32.561Z,3.58
2023-04-15T14:50:33.987Z,3.22
2023-04-15T14:52:38.817Z,3.03
2023-04-15T14:54:40.225Z,2.72
2023-04-15T14:56:41.661Z,3.13
2023-04-15T14:58:43.075Z,2.50
2023-04-15T15:00:44.747Z,3.00
2023-04-15T15:02:47.487Z,2.78
2023-04-15T15:04:49.063Z,3.05
2023-04-15T15:06:50.874Z,2.83
2023-04-15T15:08:52.332Z,2.63
2023-04-15T15:10:53.713Z,2.83
2023-04-15T15:12:55.180Z,3.17
2023-04-15T15:14:56.630Z,3.30
2023-04-15T15:16:58.211Z,2.83
2023-04-15T15:19:00.016Z,2.67
2023-04-15T15:21:03.858Z,3.20
2023-04-15T15:23:05.393Z,3.08
2023-04-15T15:25:06.892Z,4.03
2023-04-15T15:27:08.438Z,3.78
2023-04-15T15:29:09.937Z,3.97
2023-04-15T15:31:11.813Z,3.78
2023-04-15T15:33:13.275Z,3.65
2023-04-15T15:35:14.746Z,3.75
2023-04-15T15:37:16.151Z,4.50
2023-04-15T15:39:17.577Z,4.60
2023-04-15T15:41:19.106Z,4.28
2023-04-15T15:43:20.655Z,4.75
2023-04-15T15:45:22.306Z,4.43
2023-04-15T15:47:23.828Z,4.80
2023-04-15T15:49:25.864Z,4.68
2023-04-15T15:51:27.661Z,4.97
2023-04-15T15:53:29.081Z,4.53
2023-04-15T15:55:30.637Z,4.30
2023-04-15T15:57:32.223Z,3.97
2023-04-15T15:59:33.823Z,3.55
2023-04-15T16:01:35.756Z,3.28
2023-04-15T16:03:37.572Z,3.20
2023-04-15T16:05:39.308Z,3.30
2023-04-15T16:07:40.806Z,3.47
2023-04-15T16:09:42.594Z,3.80
2023-04-15T16:11:45.312Z,3.50
2023-04-15T16:13:46.743Z,3.80
2023-04-15T16:15:50.038Z,4.00
2023-04-15T16:17:52.231Z,3.72
2023-04-15T16:20:00.283Z,4.22
2023-04-15T16:22:02.843Z,4.22
2023-04-15T16:24:04.294Z,4.57
2023-04-15T16:26:06.521Z,3.78
2023-04-15T16:28:18.557Z,4.25
2023-04-15T16:30:27.040Z,3.30
2023-04-15T16:32:28.535Z,3.60
2023-04-15T16:34:30.159Z,4.10
2023-04-15T16:36:32.648Z,4.20
2023-04-15T16:38:34.060Z,4.75
2023-04-15T16:40:37.270Z,5.95
2023-04-15T16:42:38.741Z,6.03
2023-04-15T16:44:40.333Z,5.95
2023-04-15T16:46:41.880Z,5.22
2023-04-15T16:48:43.311Z,5.93
2023-04-15T16:50:44.928Z,6.10
2023-04-15T16:52:46.471Z,5.20
2023-04-15T16:54:48.194Z,5.10
2023-04-15T16:56:49.666Z,4.78
2023-04-15T16:58:51.114Z,4.15
2023-04-15T17:00:53.069Z,4.32
2023-04-15T17:02:57.987Z,3.80
2023-04-15T17:05:00.136Z,4.00
2023-04-15T17:07:01.533Z,3.58
2023-04-15T17:09:03.541Z,3.72
2023-04-15T17:11:05.453Z,3.15
2023-04-15T17:13:07.246Z,3.03
2023-04-15T17:15:09.195Z,3.92
2023-04-15T17:17:10.645Z,3.97
2023-04-15T17:19:12.643Z,3.67
2023-04-15T17:21:16.062Z,3.90
2023-04-15T17:23:17.664Z,3.45
2023-04-15T17:25:19.421Z,3.70
2023-04-15T17:27:21.495Z,3.05
2023-04-15T17:29:23.329Z,3.33
2023-04-15T17:31:25.024Z,3.42
2023-04-15T17:33:59.914Z,3.42
2023-04-15T17:35:48.522Z,2.97
2023-04-15T17:37:50.010Z,3.47
2023-04-15T17:39:52.173Z,2.88
2023-04-15T17:41:53.618Z,3.15
2023-04-15T17:43:55.064Z,3.25
2023-04-15T17:45:58.503Z,3.47
2023-04-15T17:48:03.420Z,3.33
2023-04-15T17:50:05.221Z,3.50
2023-04-15T17:52:06.829Z,3.20
2023-04-15T17:54:08.285Z,2.95
2023-04-15T17:56:09.723Z,3.80
2023-04-15T17:58:11.126Z,3.45
2023-04-15T18:00:13.405Z,3.13
2023-04-15T18:02:15.188Z,3.00
2023-04-15T18:04:16.890Z,3.35
2023-04-15T18:06:21.254Z,3.40
2023-04-15T18:08:22.774Z,3.15
2023-04-15T18:10:24.320Z,2.92
2023-04-15T18:12:25.899Z,3.22
2023-04-15T18:14:34.315Z,2.90
2023-04-15T18:16:36.665Z,3.53
2023-04-15T18:18:38.149Z,3.55
2023-04-15T18:20:39.577Z,2.83
2023-04-15T18:22:42.443Z,2.90
2023-04-15T18:24:43.943Z,3.83
2023-04-15T18:26:48.793Z,3.50
2023-04-15T18:28:50.770Z,3.72
2023-04-15T18:30:52.235Z,3.53
2023-04-15T18:32:53.778Z,3.22
2023-04-15T18:34:56.386Z,3.75
2023-04-15T18:36:58.639Z,4.10
2023-04-15T18:39:00.180Z,3.88
2023-04-15T18:41:01.671Z,3.58
2023-04-15T18:43:03.069Z,4.60
2023-04-15T18:45:04.851Z,3.67
2023-04-15T18:47:06.555Z,4.20
2023-04-15T18:49:08.165Z,4.05
2023-04-15T18:51:10.627Z,4.13
2023-04-15T18:53:12.106Z,4.50
2023-04-15T18:55:13.652Z,4.30
2023-04-15T18:57:20.452Z,4.07
2023-04-15T18:59:29.752Z,4.47
2023-04-15T19:01:32.406Z,4.60
2023-04-15T19:03:34.209Z,4.10
2023-04-15T19:05:36.557Z,4.38
2023-04-15T19:07:38.071Z,4.10
2023-04-15T19:09:41.323Z,3.63
2023-04-15T19:11:44.211Z,3.78
2023-04-15T19:13:46.852Z,4.68
2023-04-15T19:15:48.722Z,4.20
2023-04-15T19:17:50.210Z,5.18
2023-04-15T19:19:51.762Z,4.43
2023-04-15T19:21:53.662Z,4.40
2023-04-15T19:23:56.676Z,4.30
2023-04-15T19:25:58.674Z,4.15
2023-04-15T19:28:00.278Z,3.63
2023-04-15T19:30:03.268Z,4.13
2023-04-15T19:32:05.699Z,4.40
2023-04-15T19:34:07.436Z,4.35
2023-04-15T19:36:08.917Z,4.72
2023-04-15T19:38:10.409Z,4.00
2023-04-15T19:40:11.995Z,4.25
2023-04-15T19:42:13.607Z,3.85
2023-04-15T19:44:15.119Z,4.57
2023-04-15T19:46:16.640Z,4.05
2023-04-15T19:48:18.824Z,4.25
2023-04-15T19:50:24.570Z,4.63
2023-04-15T19:52:26.104Z,4.32
2023-04-15T19:54:27.540Z,4.47
2023-04-15T19:56:29.417Z,4.57
2023-04-15T19:58:32.407Z,4.93
2023-04-15T20:00:33.889Z,5.47
2023-04-15T20:02:35.469Z,7.20
2023-04-15T20:04:36.990Z,8.75
2023-04-15T20:06:38.467Z,8.68
2023-04-15T20:08:40.047Z,8.52
2023-04-15T20:10:41.466Z,9.38
2023-04-15T20:12:49.679Z,9.70
2023-04-15T20:14:54.086Z,9.80
2023-04-15T20:16:55.501Z,10.82
2023-04-15T20:18:56.954Z,9.85
2023-04-15T20:20:58.355Z,10.18
2023-04-15T20:22:59.753Z,8.65
2023-04-15T20:25:02.237Z,7.78
2023-04-15T20:27:03.909Z,8.23
2023-04-15T20:29:05.764Z,7.88
2023-04-15T20:31:07.582Z,8.10
2023-04-15T20:33:09.193Z,7.80
2023-04-15T20:35:10.802Z,6.10
2023-04-15T20:37:12.402Z,7.40
2023-04-15T20:39:13.820Z,6.70
2023-04-15T20:41:15.738Z,6.20
2023-04-15T20:43:17.642Z,7.25
2023-04-15T20:45:19.567Z,6.38
2023-04-15T20:47:21.384Z,5.78
2023-04-15T20:49:23.159Z,6.80
2023-04-15T20:51:25.003Z,6.60
2023-04-15T20:53:45.491Z,6.57
2023-04-15T20:55:46.969Z,6.47
2023-04-15T20:57:48.646Z,6.43
2023-04-15T20:59:50.370Z,7.05
2023-04-15T21:01:51.954Z,6.97
2023-04-15T21:03:53.429Z,6.80
2023-04-15T21:05:54.865Z,6.93
2023-04-15T21:07:56.282Z,7.95
2023-04-15T21:09:57.742Z,9.20
2023-04-15T21:12:01.671Z,10.25
2023-04-15T21:14:07.184Z,10.13
2023-04-15T21:16:08.702Z,8.60
2023-04-15T21:18:10.302Z,8.85
2023-04-15T21:20:12.100Z,8.73
2023-04-15T21:22:13.561Z,9.52
2023-04-15T21:24:14.993Z,10.23
2023-04-15T21:26:16.384Z,10.88
2023-04-15T21:28:17.905Z,9.55
2023-04-15T21:30:19.500Z,8.65
2023-04-15T21:32:20.912Z,8.30
2023-04-15T21:34:22.483Z,7.90
2023-04-15T21:36:23.982Z,7.50
2023-04-15T21:38:25.746Z,7.00
2023-04-15T21:40:27.184Z,6.82
2023-04-15T21:42:29.921Z,6.47
2023-04-15T21:44:31.378Z,5.97
2023-04-15T21:46:35.776Z,6.88
2023-04-15T21:48:37.531Z,6.60
2023-04-15T21:50:39.084Z,6.70
2023-04-15T21:52:40.561Z,7.15
2023-04-15T21:54:41.942Z,6.45
2023-04-15T21:56:43.583Z,6.80
2023-04-15T21:58:44.992Z,6.63
2023-04-15T22:00:46.892Z,6.32
2023-04-15T22:02:48.445Z,7.55
2023-04-15T22:04:50.053Z,6.97
2023-04-15T22:06:52.265Z,6.90
2023-04-15T22:08:57.596Z,7.07
2023-04-15T22:10:59.353Z,7.15
2023-04-15T22:13:02.946Z,7.18
2023-04-15T22:15:04.829Z,7.93
2023-04-15T22:17:06.605Z,7.65
2023-04-15T22:19:08.270Z,7.10
2023-04-15T22:21:10.298Z,6.55
2023-04-15T22:23:11.656Z,7.43
2023-04-15T22:25:14.377Z,7.20
2023-04-15T22:27:15.933Z,7.30
2023-04-15T22:29:17.333Z,7.53
2023-04-15T22:31:18.811Z,7.00
2023-04-15T22:33:20.625Z,6.85
2023-04-15T22:35:22.037Z,7.20
2023-04-15T22:37:24.049Z,7.10
2023-04-15T22:39:25.475Z,8.48
2023-04-15T22:41:27.234Z,9.52
2023-04-15T22:43:28.699Z,7.82
2023-04-15T22:45:30.222Z,7.68
2023-04-15T22:47:31.683Z,8.80
2023-04-15T22:49:34.996Z,9.82
2023-04-15T22:51:37.065Z,10.82
2023-04-15T22:53:38.615Z,10.82
2023-04-15T22:55:40.262Z,11.93
2023-04-15T22:57:41.659Z,13.27
2023-04-15T22:59:43.051Z,13.63
2023-04-15T23:01:44.482Z,13.55
2023-04-15T23:03:55.812Z,14.75
2023-04-15T23:05:58.640Z,14.60
2023-04-15T23:08:00.286Z,14.20
2023-04-15T23:10:01.755Z,14.60
2023-04-15T23:12:03.859Z,15.85
2023-04-15T23:14:05.308Z,14.60
2023-04-15T23:16:07.319Z,14.60
2023-04-15T23:18:08.798Z,15.25
2023-04-15T23:20:11.266Z,17.08
2023-04-15T23:22:12.721Z,16.92
2023-04-15T23:24:14.087Z,18.00
2023-04-15T23:26:15.484Z,17.35
2023-04-15T23:28:16.930Z,17.30
2023-04-15T23:30:18.589Z,17.60
2023-04-15T23:32:20.683Z,17.25
2023-04-15T23:34:22.074Z,16.25
2023-04-15T23:36:23.477Z,16.73
2023-04-15T23:38:24.877Z,16.25
2023-04-15T23:40:26.290Z,17.80
2023-04-15T23:42:27.670Z,16.83
2023-04-15T23:44:29.170Z,17.30
2023-04-15T23:46:30.940Z,17.95
2023-04-15T23:48:32.614Z,16.95
2023-04-15T23:50:34.504Z,16.98
2023-04-15T23:52:36.438Z,16.33
2023-04-15T23:54:37.860Z,18.48
2023-04-15T23:56:39.268Z,16.15
2023-04-15T23:58:40.717Z,16.30
